Terminal Aerodrome Forecast
Issued by NWS Omaha/Valley, NE

Home | Current Version | Previous Version | Text Only | Print | Product List | Glossary On
Versions: 1 2 3 4 5 6 7 8 9 10 11 12 13 14 15
000
FTUS43 KOAX 271131
TAFLNK
TAF
KLNK 271131Z 2712/2812 VRB03KT P6SM FEW250
     FM271700 17012G19KT P6SM SCT200
     FM280000 16009KT P6SM OVC050
     FM280500 16006KT 5SM BR BKN050 WS020/22040KT=

USA.gov is the U.S. government's official web portal to all federal, state and local government web resources and services.